Aviation Digital Data Service (ADDS)

Output produced by METARs form (1526 UTC 20 March 2019)
found at http://www.aviationweather.gov/metar/data/
 
METAR text: KBTV 201454Z 18010KT 10SM FEW045 SCT200 04/M07 A3031 RMK AO2 SLP267 T00391067 58011
Conditions at: KBTV (BURLINGTON , VT, US) observed 1454 UTC 20 March 2019
Temperature: 3.9°C (39°F)
Dewpoint: -6.7°C (20°F) [RH = 46%]
Pressure (altimeter): 30.31 inches Hg (1026.5 mb)
[Sea-level pressure: 1026.7 mb]
Winds: from the S (180 degrees) at 12 MPH (10 knots; 5.1 m/s)
Visibility: 10 or more miles (16+ km)
Ceiling: at least 12,000 feet AGL
Clouds: few clouds at 4500 feet AGL
scattered clouds at 20000 feet AGL
Weather: no significant weather observed at this time

METAR text: KBTV 201354Z 19010KT 10SM FEW045 FEW110 SCT200 02/M07 A3033 RMK AO2 SLP274 T00221072
Conditions at: KBTV (BURLINGTON , VT, US) observed 1354 UTC 20 March 2019
Temperature: 2.2°C (36°F)
Dewpoint: -7.2°C (19°F) [RH = 50%]
Pressure (altimeter): 30.33 inches Hg (1027.2 mb)
[Sea-level pressure: 1027.4 mb]
Winds: from the S (190 degrees) at 12 MPH (10 knots; 5.1 m/s)
Visibility: 10 or more miles (16+ km)
Ceiling: at least 12,000 feet AGL
Clouds: few clouds at 4500 feet AGL
few clouds at 11000 feet AGL
scattered clouds at 20000 feet AGL
Weather: no significant weather observed at this time

METAR text: KBTV 201254Z 18008KT 10SM FEW040 FEW100 SCT200 01/M08 A3034 RMK AO2 SLP278 T00061078
Conditions at: KBTV (BURLINGTON , VT, US) observed 1254 UTC 20 March 2019
Temperature: 0.6°C (33°F)
Dewpoint: -7.8°C (18°F) [RH = 53%]
Pressure (altimeter): 30.34 inches Hg (1027.5 mb)
[Sea-level pressure: 1027.8 mb]
Winds: from the S (180 degrees) at 9 MPH (8 knots; 4.1 m/s)
Visibility: 10 or more miles (16+ km)
Ceiling: at least 12,000 feet AGL
Clouds: few clouds at 4000 feet AGL
few clouds at 10000 feet AGL
scattered clouds at 20000 feet AGL
Weather: no significant weather observed at this time

METAR text: KBTV 201154Z 07003KT 10SM FEW100 M05/M10 A3034 RMK AO2 SLP279 T10501100 11050 21067 51003
Conditions at: KBTV (BURLINGTON , VT, US) observed 1154 UTC 20 March 2019
Temperature: -5.0°C (23°F)
Dewpoint: -10.0°C (14°F) [RH = 68%]
Pressure (altimeter): 30.34 inches Hg (1027.5 mb)
[Sea-level pressure: 1027.9 mb]
Winds: from the ENE (70 degrees) at 3 MPH (3 knots; 1.5 m/s)
Visibility: 10 or more miles (16+ km)
Ceiling: at least 12,000 feet AGL
Clouds: few clouds at 10000 feet AGL
Weather: no significant weather observed at this time

METAR text: KBTV 201054Z 06003KT 10SM FEW100 M07/M11 A3034 RMK AO2 SLP278 T10671111
Conditions at: KBTV (BURLINGTON , VT, US) observed 1054 UTC 20 March 2019
Temperature: -6.7°C (20°F)
Dewpoint: -11.1°C (12°F) [RH = 71%]
Pressure (altimeter): 30.34 inches Hg (1027.5 mb)
[Sea-level pressure: 1027.8 mb]
Winds: from the ENE (60 degrees) at 3 MPH (3 knots; 1.5 m/s)
Visibility: 10 or more miles (16+ km)
Ceiling: at least 12,000 feet AGL
Clouds: few clouds at 10000 feet AGL
Weather: no significant weather observed at this time

METAR text: KBTV 200954Z 00000KT 10SM CLR M06/M12 A3034 RMK AO2 SLP278 T10611117
Conditions at: KBTV (BURLINGTON , VT, US) observed 0954 UTC 20 March 2019
Temperature: -6.1°C (21°F)
Dewpoint: -11.7°C (11°F) [RH = 64%]
Pressure (altimeter): 30.34 inches Hg (1027.5 mb)
[Sea-level pressure: 1027.8 mb]
Winds: calm
Visibility: 10 or more miles (16+ km)
Ceiling: at least 12,000 feet AGL
Clouds: sky clear below 12,000 feet AGL
Weather: no significant weather observed at this time

METAR text: KBTV 200854Z 00000KT 10SM CLR M06/M11 A3033 RMK AO2 SLP276 T10611111 58011
Conditions at: KBTV (BURLINGTON , VT, US) observed 0854 UTC 20 March 2019
Temperature: -6.1°C (21°F)
Dewpoint: -11.1°C (12°F) [RH = 68%]
Pressure (altimeter): 30.33 inches Hg (1027.2 mb)
[Sea-level pressure: 1027.6 mb]
Winds: calm
Visibility: 10 or more miles (16+ km)
Ceiling: at least 12,000 feet AGL
Clouds: sky clear below 12,000 feet AGL
Weather: no significant weather observed at this time

METAR text: KBTV 200754Z 00000KT 10SM FEW070 M06/M11 A3034 RMK AO2 SLP280 T10611111
Conditions at: KBTV (BURLINGTON , VT, US) observed 0754 UTC 20 March 2019
Temperature: -6.1°C (21°F)
Dewpoint: -11.1°C (12°F) [RH = 68%]
Pressure (altimeter): 30.34 inches Hg (1027.5 mb)
[Sea-level pressure: 1028.0 mb]
Winds: calm
Visibility: 10 or more miles (16+ km)
Ceiling: at least 12,000 feet AGL
Clouds: few clouds at 7000 feet AGL
Weather: no significant weather observed at this time

METAR text: KBTV 200654Z 00000KT 10SM CLR M06/M11 A3036 RMK AO2 SLP285 T10561106
Conditions at: KBTV (BURLINGTON , VT, US) observed 0654 UTC 20 March 2019
Temperature: -5.6°C (22°F)
Dewpoint: -10.6°C (13°F) [RH = 68%]
Pressure (altimeter): 30.36 inches Hg (1028.2 mb)
[Sea-level pressure: 1028.5 mb]
Winds: calm
Visibility: 10 or more miles (16+ km)
Ceiling: at least 12,000 feet AGL
Clouds: sky clear below 12,000 feet AGL
Weather: no significant weather observed at this time

METAR text: KBTV 200554Z 00000KT 10SM CLR M06/M10 A3036 RMK AO2 SLP287 T10561100 11006 21056 52001
Conditions at: KBTV (BURLINGTON , VT, US) observed 0554 UTC 20 March 2019
Temperature: -5.6°C (22°F)
Dewpoint: -10.0°C (14°F) [RH = 71%]
Pressure (altimeter): 30.36 inches Hg (1028.2 mb)
[Sea-level pressure: 1028.7 mb]
Winds: calm
Visibility: 10 or more miles (16+ km)
Ceiling: at least 12,000 feet AGL
Clouds: sky clear below 12,000 feet AGL
Weather: no significant weather observed at this time

METAR text: KBTV 200454Z 14003KT 10SM CLR M06/M11 A3036 RMK AO2 SLP287 T10561106 400281078
Conditions at: KBTV (BURLINGTON , VT, US) observed 0454 UTC 20 March 2019
Temperature: -5.6°C (22°F)
Dewpoint: -10.6°C (13°F) [RH = 68%]
Pressure (altimeter): 30.36 inches Hg (1028.2 mb)
[Sea-level pressure: 1028.7 mb]
Winds: from the SE (140 degrees) at 3 MPH (3 knots; 1.5 m/s)
Visibility: 10 or more miles (16+ km)
Ceiling: at least 12,000 feet AGL
Clouds: sky clear below 12,000 feet AGL
Weather: no significant weather observed at this time

METAR text: KBTV 200354Z 00000KT 10SM CLR M05/M11 A3036 RMK AO2 SLP286 LAST T10501106
Conditions at: KBTV (BURLINGTON , VT, US) observed 0354 UTC 20 March 2019
Temperature: -5.0°C (23°F)
Dewpoint: -10.6°C (13°F) [RH = 65%]
Pressure (altimeter): 30.36 inches Hg (1028.2 mb)
[Sea-level pressure: 1028.6 mb]
Winds: calm
Visibility: 10 or more miles (16+ km)
Ceiling: at least 12,000 feet AGL
Clouds: sky clear below 12,000 feet AGL
Weather: no significant weather observed at this time

METAR text: KBTV 200254Z 00000KT 10SM CLR M03/M12 A3036 RMK AO2 SLP286 T10331117 56002
Conditions at: KBTV (BURLINGTON , VT, US) observed 0254 UTC 20 March 2019
Temperature: -3.3°C (26°F)
Dewpoint: -11.7°C (11°F) [RH = 52%]
Pressure (altimeter): 30.36 inches Hg (1028.2 mb)
[Sea-level pressure: 1028.6 mb]
Winds: calm
Visibility: 10 or more miles (16+ km)
Ceiling: at least 12,000 feet AGL
Clouds: sky clear below 12,000 feet AGL
Weather: no significant weather observed at this time

METAR text: KBTV 200154Z 00000KT 10SM CLR M03/M11 A3036 RMK AO2 SLP286 T10281106
Conditions at: KBTV (BURLINGTON , VT, US) observed 0154 UTC 20 March 2019
Temperature: -2.8°C (27°F)
Dewpoint: -10.6°C (13°F) [RH = 55%]
Pressure (altimeter): 30.36 inches Hg (1028.2 mb)
[Sea-level pressure: 1028.6 mb]
Winds: calm
Visibility: 10 or more miles (16+ km)
Ceiling: at least 12,000 feet AGL
Clouds: sky clear below 12,000 feet AGL
Weather: no significant weather observed at this time

METAR text: KBTV 200054Z 24003KT 10SM CLR M02/M12 A3036 RMK AO2 SLP287 T10221117
Conditions at: KBTV (BURLINGTON , VT, US) observed 0054 UTC 20 March 2019
Temperature: -2.2°C (28°F)
Dewpoint: -11.7°C (11°F) [RH = 48%]
Pressure (altimeter): 30.36 inches Hg (1028.2 mb)
[Sea-level pressure: 1028.7 mb]
Winds: from the WSW (240 degrees) at 3 MPH (3 knots; 1.5 m/s)
Visibility: 10 or more miles (16+ km)
Ceiling: at least 12,000 feet AGL
Clouds: sky clear below 12,000 feet AGL
Weather: no significant weather observed at this time

METAR text: KBTV 192354Z 33005KT 10SM CLR M01/M13 A3037 RMK AO2 SLP288 T10061128 10028 21006 53008
Conditions at: KBTV (BURLINGTON , VT, US) observed 2354 UTC 19 March 2019
Temperature: -0.6°C (31°F)
Dewpoint: -12.8°C ( 9°F) [RH = 39%]
Pressure (altimeter): 30.37 inches Hg (1028.5 mb)
[Sea-level pressure: 1028.8 mb]
Winds: from the NNW (330 degrees) at 6 MPH (5 knots; 2.6 m/s)
Visibility: 10 or more miles (16+ km)
Ceiling: at least 12,000 feet AGL
Clouds: sky clear below 12,000 feet AGL
Weather: no significant weather observed at this time

METAR text: KBTV 192254Z 31004KT 10SM CLR 01/M14 A3035 RMK AO2 SLP283 T00061139
Conditions at: KBTV (BURLINGTON , VT, US) observed 2254 UTC 19 March 2019
Temperature: 0.6°C (33°F)
Dewpoint: -13.9°C ( 7°F) [RH = 33%]
Pressure (altimeter): 30.35 inches Hg (1027.9 mb)
[Sea-level pressure: 1028.3 mb]
Winds: from the NW (310 degrees) at 5 MPH (4 knots; 2.1 m/s)
Visibility: 10 or more miles (16+ km)
Ceiling: at least 12,000 feet AGL
Clouds: sky clear below 12,000 feet AGL
Weather: no significant weather observed at this time

METAR text: KBTV 192154Z 29005KT 10SM CLR 02/M15 A3034 RMK AO2 SLP280 T00221150
Conditions at: KBTV (BURLINGTON , VT, US) observed 2154 UTC 19 March 2019
Temperature: 2.2°C (36°F)
Dewpoint: -15.0°C ( 5°F) [RH = 27%]
Pressure (altimeter): 30.34 inches Hg (1027.5 mb)
[Sea-level pressure: 1028.0 mb]
Winds: from the WNW (290 degrees) at 6 MPH (5 knots; 2.6 m/s)
Visibility: 10 or more miles (16+ km)
Ceiling: at least 12,000 feet AGL
Clouds: sky clear below 12,000 feet AGL
Weather: no significant weather observed at this time

METAR text: KBTV 192054Z 36007KT 10SM CLR 03/M16 A3034 RMK AO2 SLP280 T00281156 56013
Conditions at: KBTV (BURLINGTON , VT, US) observed 2054 UTC 19 March 2019
Temperature: 2.8°C (37°F)
Dewpoint: -15.6°C ( 4°F) [RH = 24%]
Pressure (altimeter): 30.34 inches Hg (1027.5 mb)
[Sea-level pressure: 1028.0 mb]
Winds: from the N (360 degrees) at 8 MPH (7 knots; 3.6 m/s)
Visibility: 10 or more miles (16+ km)
Ceiling: at least 12,000 feet AGL
Clouds: sky clear below 12,000 feet AGL
Weather: no significant weather observed at this time

METAR text: KBTV 191954Z 36005KT 10SM FEW075 02/M16 A3035 RMK AO2 SLP283 T00221161
Conditions at: KBTV (BURLINGTON , VT, US) observed 1954 UTC 19 March 2019
Temperature: 2.2°C (36°F)
Dewpoint: -16.1°C ( 3°F) [RH = 24%]
Pressure (altimeter): 30.35 inches Hg (1027.9 mb)
[Sea-level pressure: 1028.3 mb]
Winds: from the N (360 degrees) at 6 MPH (5 knots; 2.6 m/s)
Visibility: 10 or more miles (16+ km)
Ceiling: at least 12,000 feet AGL
Clouds: few clouds at 7500 feet AGL
Weather: no significant weather observed at this time

METAR text: KBTV 191854Z 35008KT 10SM FEW075 02/M16 A3037 RMK AO2 SLP288 T00221161
Conditions at: KBTV (BURLINGTON , VT, US) observed 1854 UTC 19 March 2019
Temperature: 2.2°C (36°F)
Dewpoint: -16.1°C ( 3°F) [RH = 24%]
Pressure (altimeter): 30.37 inches Hg (1028.5 mb)
[Sea-level pressure: 1028.8 mb]
Winds: from the N (350 degrees) at 9 MPH (8 knots; 4.1 m/s)
Visibility: 10 or more miles (16+ km)
Ceiling: at least 12,000 feet AGL
Clouds: few clouds at 7500 feet AGL
Weather: no significant weather observed at this time

METAR text: KBTV 191754Z VRB06KT 10SM CLR 02/M16 A3038 RMK AO2 SLP293 T00171161 10017 21067 58006
Conditions at: KBTV (BURLINGTON , VT, US) observed 1754 UTC 19 March 2019
Temperature: 1.7°C (35°F)
Dewpoint: -16.1°C ( 3°F) [RH = 25%]
Pressure (altimeter): 30.38 inches Hg (1028.9 mb)
[Sea-level pressure: 1029.3 mb]
Winds: variable direction winds at 7 MPH (6 knots; 3.1 m/s)
Visibility: 10 or more miles (16+ km)
Ceiling: at least 12,000 feet AGL
Clouds: sky clear below 12,000 feet AGL
Weather: no significant weather observed at this time

METAR text: KBTV 191654Z 33008KT 10SM FEW075 01/M17 A3040 RMK AO2 SLP298 T00111167
Conditions at: KBTV (BURLINGTON , VT, US) observed 1654 UTC 19 March 2019
Temperature: 1.1°C (34°F)
Dewpoint: -16.7°C ( 2°F) [RH = 25%]
Pressure (altimeter): 30.40 inches Hg (1029.5 mb)
[Sea-level pressure: 1029.8 mb]
Winds: from the NNW (330 degrees) at 9 MPH (8 knots; 4.1 m/s)
Visibility: 10 or more miles (16+ km)
Ceiling: at least 12,000 feet AGL
Clouds: few clouds at 7500 feet AGL
Weather: no significant weather observed at this time

METAR text: KBTV 191554Z 30007KT 270V350 10SM FEW070 00/M16 A3040 RMK AO2 SLP300 T00001156
Conditions at: KBTV (BURLINGTON , VT, US) observed 1554 UTC 19 March 2019
Temperature: 0.0°C (32°F)
Dewpoint: -15.6°C ( 4°F) [RH = 30%]
Pressure (altimeter): 30.40 inches Hg (1029.5 mb)
[Sea-level pressure: 1030.0 mb]
Winds: from the WNW (300 degrees) at 8 MPH (7 knots; 3.6 m/s)
Visibility: 10 or more miles (16+ km)
Ceiling: at least 12,000 feet AGL
Clouds: few clouds at 7000 feet AGL
Weather: no significant weather observed at this time

METAR text: KBTV 191454Z 01004KT 10SM FEW060 M01/M15 A3040 RMK AO2 SLP300 T10111150 51009
Conditions at: KBTV (BURLINGTON , VT, US) observed 1454 UTC 19 March 2019
Temperature: -1.1°C (30°F)
Dewpoint: -15.0°C ( 5°F) [RH = 34%]
Pressure (altimeter): 30.40 inches Hg (1029.5 mb)
[Sea-level pressure: 1030.0 mb]
Winds: from the N (10 degrees) at 5 MPH (4 knots; 2.1 m/s)
Visibility: 10 or more miles (16+ km)
Ceiling: at least 12,000 feet AGL
Clouds: few clouds at 6000 feet AGL
Weather: no significant weather observed at this time

METAR text: KBTV 191354Z VRB03KT 10SM FEW055 M02/M13 A3039 RMK AO2 SLP298 T10221133
Conditions at: KBTV (BURLINGTON , VT, US) observed 1354 UTC 19 March 2019
Temperature: -2.2°C (28°F)
Dewpoint: -13.3°C ( 8°F) [RH = 42%]
Pressure (altimeter): 30.39 inches Hg (1029.2 mb)
[Sea-level pressure: 1029.8 mb]
Winds: variable direction winds at 3 MPH (3 knots; 1.5 m/s)
Visibility: 10 or more miles (16+ km)
Ceiling: at least 12,000 feet AGL
Clouds: few clouds at 5500 feet AGL
Weather: no significant weather observed at this time

METAR text: KBTV 191254Z 00000KT 10SM CLR M04/M11 A3038 RMK AO2 SLP294 T10391106
Conditions at: KBTV (BURLINGTON , VT, US) observed 1254 UTC 19 March 2019
Temperature: -3.9°C (25°F)
Dewpoint: -10.6°C (13°F) [RH = 60%]
Pressure (altimeter): 30.38 inches Hg (1028.9 mb)
[Sea-level pressure: 1029.4 mb]
Winds: calm
Visibility: 10 or more miles (16+ km)
Ceiling: at least 12,000 feet AGL
Clouds: sky clear below 12,000 feet AGL
Weather: no significant weather observed at this time

METAR text: KBTV 191154Z 00000KT 10SM CLR M07/M10 A3037 RMK AO2 SLP291 4/001 T10671100 11028 21078 53020
Conditions at: KBTV (BURLINGTON , VT, US) observed 1154 UTC 19 March 2019
Temperature: -6.7°C (20°F)
Dewpoint: -10.0°C (14°F) [RH = 77%]
Pressure (altimeter): 30.37 inches Hg (1028.5 mb)
[Sea-level pressure: 1029.1 mb]
Winds: calm
Visibility: 10 or more miles (16+ km)
Ceiling: at least 12,000 feet AGL
Clouds: sky clear below 12,000 feet AGL
Weather: no significant weather observed at this time

METAR text: KBTV 191054Z 00000KT 10SM CLR M07/M11 A3035 RMK AO2 SLP282 T10721106
Conditions at: KBTV (BURLINGTON , VT, US) observed 1054 UTC 19 March 2019
Temperature: -7.2°C (19°F)
Dewpoint: -10.6°C (13°F) [RH = 77%]
Pressure (altimeter): 30.35 inches Hg (1027.9 mb)
[Sea-level pressure: 1028.2 mb]
Winds: calm
Visibility: 10 or more miles (16+ km)
Ceiling: at least 12,000 feet AGL
Clouds: sky clear below 12,000 feet AGL
Weather: no significant weather observed at this time

METAR text: KBTV 190954Z 00000KT 10SM CLR M07/M10 A3033 RMK AO2 SLP275 T10671100 $
Conditions at: KBTV (BURLINGTON , VT, US) observed 0954 UTC 19 March 2019
Temperature: -6.7°C (20°F)
Dewpoint: -10.0°C (14°F) [RH = 77%]
Pressure (altimeter): 30.33 inches Hg (1027.2 mb)
[Sea-level pressure: 1027.5 mb]
Winds: calm
Visibility: 10 or more miles (16+ km)
Ceiling: at least 12,000 feet AGL
Clouds: sky clear below 12,000 feet AGL
Weather:
SOME DATA ABOVE MAY BE INACCURATE!!!
"$" is an indication the sensor requires maintenance

METAR text: KBTV 190854Z 00000KT 10SM CLR M06/M11 A3031 RMK AO2 SLP270 T10611106 51003 $
Conditions at: KBTV (BURLINGTON , VT, US) observed 0854 UTC 19 March 2019
Temperature: -6.1°C (21°F)
Dewpoint: -10.6°C (13°F) [RH = 70%]
Pressure (altimeter): 30.31 inches Hg (1026.5 mb)
[Sea-level pressure: 1027.0 mb]
Winds: calm
Visibility: 10 or more miles (16+ km)
Ceiling: at least 12,000 feet AGL
Clouds: sky clear below 12,000 feet AGL
Weather:
SOME DATA ABOVE MAY BE INACCURATE!!!
"$" is an indication the sensor requires maintenance

METAR text: KBTV 190754Z 00000KT 10SM BKN090 M04/M10 A3031 RMK AO2 SLP268 T10441100 $
Conditions at: KBTV (BURLINGTON , VT, US) observed 0754 UTC 19 March 2019
Temperature: -4.4°C (24°F)
Dewpoint: -10.0°C (14°F) [RH = 65%]
Pressure (altimeter): 30.31 inches Hg (1026.5 mb)
[Sea-level pressure: 1026.8 mb]
Winds: calm
Visibility: 10 or more miles (16+ km)
Ceiling: 9000 feet AGL
Clouds: broken clouds at 9000 feet AGL
Weather:
SOME DATA ABOVE MAY BE INACCURATE!!!
"$" is an indication the sensor requires maintenance

METAR text: KBTV 190654Z 00000KT 10SM BKN080 M04/M10 A3031 RMK AO2 SLP270 T10391100 $
Conditions at: KBTV (BURLINGTON , VT, US) observed 0654 UTC 19 March 2019
Temperature: -3.9°C (25°F)
Dewpoint: -10.0°C (14°F) [RH = 62%]
Pressure (altimeter): 30.31 inches Hg (1026.5 mb)
[Sea-level pressure: 1027.0 mb]
Winds: calm
Visibility: 10 or more miles (16+ km)
Ceiling: 8000 feet AGL
Clouds: broken clouds at 8000 feet AGL
Weather:
SOME DATA ABOVE MAY BE INACCURATE!!!
"$" is an indication the sensor requires maintenance

METAR text: KBTV 190554Z 00000KT 10SM OVC046 M03/M11 A3031 RMK AO2 SLP267 T10331106 11006 21033 53007 $
Conditions at: KBTV (BURLINGTON , VT, US) observed 0554 UTC 19 March 2019
Temperature: -3.3°C (26°F)
Dewpoint: -10.6°C (13°F) [RH = 57%]
Pressure (altimeter): 30.31 inches Hg (1026.5 mb)
[Sea-level pressure: 1026.7 mb]
Winds: calm
Visibility: 10 or more miles (16+ km)
Ceiling: 4600 feet AGL
Clouds: overcast cloud deck at 4600 feet AGL
Weather:
SOME DATA ABOVE MAY BE INACCURATE!!!
"$" is an indication the sensor requires maintenance

METAR text: KBTV 190454Z 00000KT 10SM SCT060 OVC075 M03/M11 A3029 RMK AO2 SLP262 T10331111 400221078 $
Conditions at: KBTV (BURLINGTON , VT, US) observed 0454 UTC 19 March 2019
Temperature: -3.3°C (26°F)
Dewpoint: -11.1°C (12°F) [RH = 55%]
Pressure (altimeter): 30.29 inches Hg (1025.8 mb)
[Sea-level pressure: 1026.2 mb]
Winds: calm
Visibility: 10 or more miles (16+ km)
Ceiling: 7500 feet AGL
Clouds: scattered clouds at 6000 feet AGL
overcast cloud deck at 7500 feet AGL
Weather:
SOME DATA ABOVE MAY BE INACCURATE!!!
"$" is an indication the sensor requires maintenance

METAR text: KBTV 190354Z COR 00000KT 10SM BKN060 OVC070 M03/M13 A3029 RMK AO2 SLP261 LAST T10331128 $
Conditions at: KBTV (BURLINGTON , VT, US) observed 0354 UTC 19 March 2019
Temperature: -3.3°C (26°F)
Dewpoint: -12.8°C ( 9°F) [RH = 48%]
Pressure (altimeter): 30.29 inches Hg (1025.8 mb)
[Sea-level pressure: 1026.1 mb]
Winds: calm
Visibility: 10 or more miles (16+ km)
Ceiling: 6000 feet AGL
Clouds: broken clouds at 6000 feet AGL
overcast cloud deck at 7000 feet AGL
Weather:
SOME DATA ABOVE MAY BE INACCURATE!!!
"$" is an indication the sensor requires maintenance

Forecast for: KBTV (BURLINGTON , VT, US)
Text: KBTV 201126Z 2012/2112 18007KT P6SM FEW200
Forecast period: 1200 UTC 20 March 2019 to 0500 UTC 21 March 2019
Forecast type: FROM: standard forecast or significant change
Winds: from the S (180 degrees) at 8 MPH (7 knots; 3.6 m/s)
Visibility: 6 or more miles 10+ km)
Ceiling: at least 12,000 feet AGL
Clouds: few clouds at 20000 feet AGL
Weather: no significant weather forecast for this period
Text: FM210500 17010KT P6SM BKN150
Forecast period: 0500 to 1200 UTC 21 March 2019
Forecast type: FROM: standard forecast or significant change
Winds: from the S (170 degrees) at 12 MPH (10 knots; 5.1 m/s)
Visibility: 6 or more miles 10+ km)
Ceiling: 15000 feet AGL
Clouds: broken clouds at 15000 feet AGL
Weather: no significant weather forecast for this period